Nearby METAR Reports

 

KEDC - Austin Exec, Texas, USA
Distance from station: SSE 10mi, 17km
Updated: Sun, 27-Sep-2020 1:35am CDT
Overcast
Overcast
 Wind from S
Wind: S 8 mph , 13 km/h
Temperature: 75°F , 24°C
Dew Point: 72°F , 22°C
Humidity: 89%
Barometer: 29.84 inHg , 1010.5 hPa
Clouds: Overcast
Cloud details: Overcast 1200 ft
2020/09/27 06:35 KEDC 270635Z AUTO 18007KT OVC012 24/22 A2984 RMK AO2
KGTU - Georgetown, Texas, USA
Distance from station: NNW 11mi, 17km
Updated: Sun, 27-Sep-2020 12:56am CDT
Overcast
Overcast
 Wind from S
Wind: S 15 mph , 24 km/h, Gust: 18 mph , 30 km/h
Temperature: 77°F , 25°C
Dew Point: 72°F , 22°C
Humidity: 83%
Barometer: 29.84 inHg , 1010.5 hPa
Clouds: Overcast
Visibility: 10 miles , 16 km
Cloud details: Overcast 1300 ft
2020/09/27 05:56 KGTU 270556Z AUTO 17013G16KT 10SM OVC013 25/22 A2984 RMK AO2 SLP098 T02500222 10294 20244 403170178 58002
 
KATT - Austin/Mabry, Texas, USA
Distance from station: SSW 18mi, 30km
Updated: Sun, 27-Sep-2020 12:51am CDT
Mostly cloudy
Mostly cloudy
 Wind from varies
Wind: varies 6 mph , 9 km/h
Temperature: 77°F , 25°C
Dew Point: 72°F , 22°C
Humidity: 83%
Barometer: 29.84 inHg , 1010.5 hPa
Clouds: Mostly cloudy
Visibility: 10 miles , 16 km
Cloud details: Mostly cloudy 1200 ft
2020/09/27 05:51 KATT 270551Z AUTO VRB05KT 10SM BKN012 25/22 A2984 RMK AO2 SLP092 T02500217 10294 20250 403280200 50002 $
KRYW - Lago Vista, Texas, USA
Distance from station: W 22mi, 35km
Updated: Sun, 27-Sep-2020 1:35am CDT
Overcast
Overcast
 Wind from S
Wind: S 8 mph , 13 km/h
Temperature: 73°F , 23°C
Dew Point: 72°F , 22°C
Humidity: 94%
Barometer: 29.85 inHg , 1010.8 hPa
Clouds: Overcast
Visibility: 10 miles , 16 km
Cloud details: Overcast 900 ft
2020/09/27 06:35 KRYW 270635Z AUTO 18007KT 10SM OVC009 23/22 A2985 RMK AO2 T02280216
 
KAUS - Austin, Texas, USA
Distance from station: S 25mi, 41km
Updated: Sun, 27-Sep-2020 12:53am CDT
Mostly cloudy
Mostly cloudy
 Wind from S
Wind: S 12 mph , 19 km/h
Temperature: 75°F , 24°C
Dew Point: 73°F , 23°C
Humidity: 94%
Barometer: 29.83 inHg , 1010.2 hPa
Clouds: Mostly cloudy
Visibility: 10 miles , 16 km
Cloud details: Mostly cloudy 1100 ft
2020/09/27 05:53 KAUS 270553Z 18010KT 10SM BKN011 24/23 A2983 RMK AO2 SLP091 T02440228 10300 20244 403170161 50003 $
KILE - Killeen Muni, Texas, USA
Distance from station: N 36mi, 58km
Updated: Sun, 27-Sep-2020 12:56am CDT
Overcast
Overcast
 Wind from S
Wind: S 15 mph , 24 km/h, Gust: 21 mph , 33 km/h
Temperature: 75°F , 24°C
Dew Point: 72°F , 22°C
Humidity: 89%
Barometer: 29.82 inHg , 1009.8 hPa
Clouds: Overcast
Visibility: 10 miles , 16 km
Cloud details: Overcast 1300 ft
2020/09/27 05:56 KILE 270556Z AUTO 17013G18KT 10SM OVC013 24/22 A2982 RMK AO2 SLP084 6//// T02390217 10289 20239 403110178 56003 PNO $
 
KGRK - Gray/Ft Hood, Texas, USA
Distance from station: NNW 38mi, 62km
Updated: Sun, 27-Sep-2020 12:58am CDT
Mostly cloudy
Mostly cloudy
 Wind from SSE
Wind: SSE 13 mph , 20 km/h
Temperature: 73°F , 23°C
Dew Point: 70°F , 21°C
Humidity: 89%
Barometer: 29.80 inHg , 1009.1 hPa
Clouds: Mostly cloudy
Visibility: 10 miles , 16 km
Cloud details: Mostly cloudy 1200 ft
2020/09/27 05:58 KGRK 270558Z AUTO 15011KT 10SM BKN012 23/21 A2980 RMK AO2 BKN V FEW SLP081 58004
KBMQ - Burnet, Texas, USA
Distance from station: WNW 39mi, 64km
Updated: Sun, 27-Sep-2020 1:17am CDT
Mostly cloudy
Mostly cloudy
 Wind from S
Wind: S 13 mph , 20 km/h, Gust: 23 mph , 37 km/h
Temperature: 73°F , 23°C
Dew Point: 70°F , 21°C
Humidity: 89%
Barometer: 29.85 inHg , 1010.8 hPa
Clouds: Mostly cloudy
Visibility: 10 miles , 16 km
Cloud details: Mostly cloudy 1200 ft
2020/09/27 06:17 KBMQ 270617Z AUTO 18011G20KT 10SM BKN012 23/21 A2985 RMK AO2 T02330211 $
 
KHLR - Ft Hood/Killeen, Texas, USA
Distance from station: N 41mi, 66km
Updated: Sun, 27-Sep-2020 1:13am CDT
Mostly cloudy
Mostly cloudy
 Wind from S
Wind: S 13 mph , 20 km/h
Temperature: 75°F , 24°C
Dew Point: 72°F , 22°C
Humidity: 89%
Barometer: 29.81 inHg , 1009.5 hPa
Clouds: Mostly cloudy
Visibility: 10 miles , 16 km
Cloud details: Mostly cloudy 1200 ft
2020/09/27 06:13 KHLR 270613Z AUTO 17011KT 10SM BKN012 24/22 A2981 RMK AO2 BKN V SCT SLP083
KTPL - Temple/Miller, Texas, USA
Distance from station: NNE 42mi, 68km
Updated: Sun, 27-Sep-2020 1:00am CDT
Mostly cloudy
Mostly cloudy
 Wind from SSE
Wind: SSE 15 mph , 24 km/h
Temperature: 75°F , 24°C
Dew Point: 73°F , 23°C
Humidity: 94%
Barometer: 29.82 inHg , 1009.8 hPa
Clouds: Mostly cloudy
Visibility: 10 miles , 16 km
Cloud details: Mostly cloudy 1300 ft
2020/09/27 06:00 KTPL 270600Z AUTO 16013KT 10SM BKN013 24/23 A2982 RMK AO2
 
KT35 - Cameron, Texas, USA
Distance from station: ENE 45mi, 72km
Updated: Sun, 27-Sep-2020 1:35am CDT
Mostly cloudy
Mostly cloudy
 Wind from S
Wind: S 12 mph , 19 km/h
Temperature: 75°F , 24°C
Dew Point: 72°F , 22°C
Humidity: 89%
Barometer: 29.82 inHg , 1009.8 hPa
Clouds: Mostly cloudy
Visibility: 10 miles , 16 km
Cloud details: Mostly cloudy 1100 ft
2020/09/27 06:35 KT35 270635Z AUTO 18010KT 10SM BKN011 24/22 A2982 RMK AO2 T02380223 TSNO
KDZB - Horseshoe Bay, Texas, USA
Distance from station: W 45mi, 73km
Updated: Sun, 27-Sep-2020 1:36am CDT
Clear
Clear
 Wind from S
Wind: S 13 mph , 20 km/h, Gust: 22 mph , 35 km/h
Temperature: 75°F , 24°C
Dew Point: 70°F , 21°C
Humidity: 83%
Barometer: 29.82 inHg , 1009.8 hPa
Clouds: Clear
Visibility: 10 miles , 16 km
2020/09/27 06:36 KDZB 270636Z AUTO 18011G19KT 10SM CLR 24/21 A2982 RMK AO2
 
KGYB - Giddings-Lee, Texas, USA
Distance from station: SE 45mi, 73km
Updated: Sun, 27-Sep-2020 1:35am CDT
Overcast
Overcast
 Wind from S
Wind: S 12 mph , 19 km/h
Temperature: 77°F , 25°C
Dew Point: 73°F , 23°C
Humidity: 89%
Barometer: 29.86 inHg , 1011.2 hPa
Clouds: Overcast
Visibility: 10 miles , 16 km
Cloud details: Overcast 800 ft
2020/09/27 06:35 KGYB 270635Z AUTO 19010KT 10SM OVC008 25/23 A2986 RMK AO2 T02500230
KHYI - San Marcos, Texas, USA
Distance from station: SSW 48mi, 78km
Updated: Sun, 27-Sep-2020 12:56am CDT
Mostly cloudy
Mostly cloudy
 Wind from SSE
Wind: SSE 6 mph , 9 km/h
Temperature: 75°F , 24°C
Dew Point: 73°F , 23°C
Humidity: 94%
Barometer: 29.85 inHg , 1010.8 hPa
Clouds: Mostly cloudy
Visibility: 10 miles , 16 km
Cloud details: Mostly cloudy 900 ft
2020/09/27 05:56 KHYI 270556Z AUTO 16005KT 10SM BKN009 24/23 A2985 RMK AO2 SLP100 T02390233 10300 20233 403220156 50004
 
KLZZ - Lampasas, Texas, USA
Distance from station: NW 52mi, 84km
Updated: Sun, 27-Sep-2020 1:35am CDT
Mostly cloudy
Mostly cloudy
 Wind from S
Wind: S 6 mph , 9 km/h
Temperature: 73°F , 23°C
Dew Point: 70°F , 21°C
Humidity: 89%
Barometer: 29.81 inHg , 1009.5 hPa
Clouds: Mostly cloudy
Visibility: 10 miles , 16 km
Cloud details: Mostly cloudy 1500 ft
2020/09/27 06:35 KLZZ 270635Z AUTO 18005KT 10SM BKN015 23/21 A2981 RMK AO2 T02300210
KRWV - Caldwell, Texas, USA
Distance from station: E 54mi, 87km
Updated: Sun, 27-Sep-2020 1:35am CDT
Overcast
Overcast
 Wind from S
Wind: S 12 mph , 19 km/h
Temperature: 75°F , 24°C
Barometer: 29.85 inHg , 1010.8 hPa
Clouds: Overcast
Visibility: 10 miles , 16 km
Cloud details: Overcast 900 ft
2020/09/27 06:35 KRWV 270635Z AUTO 17010KT 10SM OVC009 24/ A2985 RMK AO2 T0237////
 
K3T5 - La Grange, Texas, USA
Distance from station: SE 59mi, 95km
Updated: Sun, 27-Sep-2020 1:35am CDT
Overcast
Overcast
 Wind from S
Wind: S 12 mph , 19 km/h, Gust: 20 mph , 31 km/h
Temperature: 77°F , 25°C
Dew Point: 77°F , 25°C
Humidity: 100%
Barometer: 29.83 inHg , 1010.2 hPa
Clouds: Overcast
Visibility: 10 miles , 16 km
Cloud details: Overcast 600 ft
2020/09/27 06:35 K3T5 270635Z AUTO 17010G17KT 10SM OVC006 25/25 A2983 RMK AO2 T02500250
KGOP - Gatesville, Texas, USA
Distance from station: N 61mi, 99km
Updated: Sun, 27-Sep-2020 1:35am CDT
Partly cloudy
Partly cloudy
 Wind from SSE
Wind: SSE 8 mph , 13 km/h, Gust: 15 mph , 24 km/h
Temperature: 75°F , 24°C
Dew Point: 72°F , 22°C
Humidity: 89%
Barometer: 29.82 inHg , 1009.8 hPa
Clouds: Partly cloudy
Visibility: 10 miles , 16 km
Cloud details: Partly cloudy 1200 ft
2020/09/27 06:35 KGOP 270635Z AUTO 16007G13KT 10SM SCT012 24/22 A2982 RMK AO2
 
KLHB - Hearne Muni, Texas, USA
Distance from station: ENE 63mi, 101km
Updated: Sun, 27-Sep-2020 1:35am CDT
Partly cloudy
Partly cloudy
 Wind from SE
Wind: SE 7 mph , 11 km/h
Temperature: 73°F , 23°C
Dew Point: 72°F , 22°C
Humidity: 94%
Barometer: 29.84 inHg , 1010.5 hPa
Clouds: Partly cloudy
Visibility: 10 miles , 16 km
Cloud details: Partly cloudy 1100 ft
2020/09/27 06:35 KLHB 270635Z AUTO 14006KT 10SM SCT011 23/22 A2984 RMK AO2 T02300218
KBAZ - New Braunfels, Texas, USA
Distance from station: SSW 63mi, 102km
Updated: Sun, 27-Sep-2020 1:38am CDT
Mostly cloudy
Mostly cloudy
 Wind from S
Wind: S 10 mph , 17 km/h
Temperature: 77°F , 25°C
Dew Point: 73°F , 23°C
Humidity: 89%
Barometer: 29.83 inHg , 1010.2 hPa
Clouds: Mostly cloudy
Visibility: 10 miles , 16 km
Cloud details: Mostly cloudy 1100 ft
2020/09/27 06:38 KBAZ 270638Z AUTO 19009KT 10SM BKN011 25/23 A2983 RMK AO2 T02500228